createdAt,value
2017-03-04T00:00:34.704Z,70.03
2017-03-04T00:01:34.686Z,69.93
2017-03-04T00:02:34.689Z,69.93
2017-03-04T00:03:34.680Z,70.21
2017-03-04T00:04:34.654Z,70.31
2017-03-04T00:05:34.644Z,70.5
2017-03-04T00:06:34.627Z,70.5
2017-03-04T00:07:34.630Z,70.5
2017-03-04T00:08:34.609Z,70.5
2017-03-04T00:09:34.595Z,70.31
2017-03-04T00:10:34.591Z,70.4
2017-03-04T00:11:34.571Z,70.4
2017-03-04T00:12:34.581Z,70.5
2017-03-04T00:13:34.550Z,70.5
2017-03-04T00:14:34.536Z,70.03
2017-03-04T00:15:34.525Z,70.21
2017-03-04T00:16:34.524Z,70.03
2017-03-04T00:17:34.502Z,70.88
2017-03-04T00:18:34.491Z,70.69
2017-03-04T00:19:34.481Z,70.5
2017-03-04T00:20:34.084Z,70.31
2017-03-04T00:21:34.467Z,70.4
2017-03-04T00:22:34.444Z,70.69
2017-03-04T00:23:34.437Z,70.59
2017-03-04T00:24:34.425Z,70.78
2017-03-04T00:25:34.417Z,70.88
2017-03-04T00:26:34.404Z,70.88
2017-03-04T00:27:34.400Z,70.88
2017-03-04T00:28:34.376Z,70.88
2017-03-04T00:29:34.367Z,70.78
2017-03-04T00:30:34.353Z,70.88
2017-03-04T00:31:34.340Z,70.98
2017-03-04T00:32:34.334Z,70.98
2017-03-04T00:33:34.324Z,70.98
2017-03-04T00:34:34.306Z,70.98
2017-03-04T00:35:34.296Z,70.88
2017-03-04T00:36:34.286Z,70.78
2017-03-04T00:37:34.275Z,71.26
2017-03-04T00:38:33.874Z,71.26
2017-03-04T00:39:34.248Z,71.17
2017-03-04T00:40:34.239Z,70.98
2017-03-04T00:41:34.228Z,71.17
2017-03-04T00:42:34.215Z,71.07
2017-03-04T00:43:34.204Z,71.07
2017-03-04T00:44:34.226Z,71.17
2017-03-04T00:45:34.193Z,70.88
2017-03-04T00:46:34.172Z,71.26
2017-03-04T00:47:34.160Z,70.98
2017-03-04T00:48:34.150Z,71.17
2017-03-04T00:49:34.135Z,70.78
2017-03-04T00:50:34.122Z,70.98
2017-03-04T00:51:34.113Z,70.88
2017-03-04T00:52:34.108Z,70.88
2017-03-04T00:53:34.101Z,70.88
2017-03-04T00:54:34.120Z,70.98
2017-03-04T00:55:34.067Z,71.26
2017-03-04T00:56:34.056Z,71.26
2017-03-04T00:57:33.662Z,71.26
2017-03-04T00:58:34.031Z,70.88
2017-03-04T00:59:34.021Z,71.26
2017-03-04T01:00:34.009Z,70.88
2017-03-04T01:01:33.999Z,70.78
2017-03-04T01:02:33.990Z,70.88
2017-03-04T01:03:33.989Z,70.78
2017-03-04T01:04:33.976Z,71.26
2017-03-04T01:05:33.951Z,71.36
2017-03-04T01:06:33.952Z,71.83
2017-03-04T01:07:33.931Z,71.36
2017-03-04T01:08:33.918Z,71.36
2017-03-04T01:09:33.906Z,71.36
2017-03-04T01:10:33.890Z,71.45
2017-03-04T01:11:33.882Z,71.17
2017-03-04T01:12:33.875Z,71.36
2017-03-04T01:13:33.857Z,71.26
2017-03-04T01:14:33.846Z,71.26
2017-03-04T01:15:33.838Z,71.26
2017-03-04T01:16:33.823Z,71.07
2017-03-04T01:17:33.816Z,71.26
2017-03-04T01:18:33.802Z,71.17
2017-03-04T01:19:33.788Z,71.26
2017-03-04T01:20:33.779Z,71.26
2017-03-04T01:21:33.767Z,71.36
2017-03-04T01:22:33.754Z,71.26
2017-03-04T01:23:33.751Z,71.45
2017-03-04T01:24:33.739Z,71.45
2017-03-04T01:25:33.720Z,71.17
2017-03-04T01:26:33.708Z,71.17
2017-03-04T01:27:33.695Z,71.07
2017-03-04T01:28:33.685Z,70.98
2017-03-04T01:29:33.678Z,71.26
2017-03-04T01:30:33.275Z,71.8
2017-03-04T01:31:33.658Z,71.83
2017-03-04T01:32:33.639Z,71.51
2017-03-04T01:33:33.626Z,71.7
2017-03-04T01:34:33.620Z,71.89
2017-03-04T01:35:33.620Z,71.6
2017-03-04T01:36:33.593Z,72.02
2017-03-04T01:37:33.593Z,72.17
2017-03-04T01:38:33.568Z,72.36
2017-03-04T01:39:33.557Z,72.08
2017-03-04T01:40:33.547Z,72.36
2017-03-04T01:41:33.537Z,72.36
2017-03-04T01:42:33.521Z,72.08
2017-03-04T01:43:33.511Z,72.93
2017-03-04T01:44:33.501Z,72.84
2017-03-04T01:45:33.492Z,72.64
2017-03-04T01:46:33.477Z,72.84
2017-03-04T01:47:33.463Z,72.93
2017-03-04T01:48:33.452Z,72.84
2017-03-04T01:49:33.440Z,73.22
2017-03-04T01:50:33.436Z,73.03
2017-03-04T01:51:33.416Z,73.03
2017-03-04T01:52:33.409Z,72.74
2017-03-04T01:53:33.393Z,72.93
2017-03-04T01:54:33.382Z,73.22
2017-03-04T01:55:33.370Z,73.31
2017-03-04T01:56:33.366Z,72.93
2017-03-04T01:57:33.352Z,72.84
2017-03-04T01:58:33.340Z,72.64
2017-03-04T01:59:33.336Z,72.93
2017-03-04T02:00:33.310Z,73.31
2017-03-04T02:01:33.306Z,72.55
2017-03-04T02:02:33.294Z,72.55
2017-03-04T02:03:33.276Z,72.64
2017-03-04T02:04:33.263Z,72.55
2017-03-04T02:05:33.257Z,72.49
2017-03-04T02:06:33.248Z,72.74
2017-03-04T02:07:33.230Z,72.93
2017-03-04T02:08:33.217Z,73.03
2017-03-04T02:09:33.205Z,72.93
2017-03-04T02:10:33.194Z,72.93
2017-03-04T02:11:33.195Z,73.03
2017-03-04T02:12:33.168Z,73.03
2017-03-04T02:13:33.156Z,73.22
2017-03-04T02:14:33.145Z,73.22
2017-03-04T02:15:33.134Z,73.12
2017-03-04T02:16:33.135Z,72.93
2017-03-04T02:17:33.113Z,73.12
2017-03-04T02:18:33.099Z,73.22
2017-03-04T02:19:33.089Z,73.5
2017-03-04T02:20:33.076Z,73.22
2017-03-04T02:21:33.069Z,73.22
2017-03-04T02:22:33.063Z,73.22
2017-03-04T02:23:33.038Z,73.22
2017-03-04T02:24:33.038Z,73.22
2017-03-04T02:25:33.016Z,73.5
2017-03-04T02:26:33.006Z,73.41
2017-03-04T02:27:32.992Z,73.5
2017-03-04T02:28:32.981Z,73.31
2017-03-04T02:29:32.978Z,73.22
2017-03-04T02:30:32.961Z,73.03
2017-03-04T02:31:32.947Z,73.03
2017-03-04T02:32:32.938Z,73.31
2017-03-04T02:33:32.921Z,73.79
2017-03-04T02:34:32.911Z,73.5
2017-03-04T02:35:32.899Z,73.69
2017-03-04T02:36:32.888Z,73.5
2017-03-04T02:37:32.907Z,73.41
2017-03-04T02:38:32.863Z,73.88
2017-03-04T02:39:32.863Z,73.5
2017-03-04T02:40:32.840Z,73.88
2017-03-04T02:41:32.828Z,73.69
2017-03-04T02:42:32.827Z,73.88
2017-03-04T02:43:32.803Z,74.45
2017-03-04T02:44:32.794Z,74.35
2017-03-04T02:45:32.780Z,74.64
2017-03-04T02:46:32.769Z,74.64
2017-03-04T02:47:32.755Z,74.26
2017-03-04T02:48:32.750Z,74.16
2017-03-04T02:49:32.734Z,74.07
2017-03-04T02:50:32.720Z,74.45
2017-03-04T02:51:32.712Z,74.45
2017-03-04T02:52:32.707Z,74.35
2017-03-04T02:53:32.687Z,74.92
2017-03-04T02:54:32.709Z,74.54
2017-03-04T02:55:32.661Z,74.92
2017-03-04T02:56:32.906Z,74.83
2017-03-04T02:57:32.638Z,74.54
2017-03-04T02:58:32.641Z,74.92
2017-03-04T02:59:32.614Z,74.64
2017-03-04T03:00:32.603Z,74.54
2017-03-04T03:01:32.605Z,74.73
2017-03-04T03:02:32.580Z,74.54
2017-03-04T03:03:32.566Z,74.26
2017-03-04T03:04:32.555Z,74.54
2017-03-04T03:05:32.543Z,74.26
2017-03-04T03:06:32.540Z,74.26
2017-03-04T03:07:32.539Z,74.07
2017-03-04T03:08:32.509Z,74.35
2017-03-04T03:09:32.513Z,74.83
2017-03-04T03:10:32.483Z,74.54
2017-03-04T03:11:32.474Z,74.73
2017-03-04T03:12:32.473Z,74.92
2017-03-04T03:13:32.448Z,74.35
2017-03-04T03:14:32.451Z,74.64
2017-03-04T03:15:32.442Z,74.45
2017-03-04T03:16:32.416Z,74.54
2017-03-04T03:17:32.403Z,74.45
2017-03-04T03:18:32.391Z,74.26
2017-03-04T03:19:32.390Z,74.54
2017-03-04T03:20:32.372Z,74.16
2017-03-04T03:21:32.359Z,74.83
2017-03-04T03:22:32.347Z,74.73
2017-03-04T03:23:32.331Z,74.73
2017-03-04T03:24:32.321Z,74.64
2017-03-04T03:25:32.346Z,74.73
2017-03-04T03:26:32.296Z,74.54
2017-03-04T03:27:32.286Z,75.49
2017-03-04T03:28:32.287Z,74.83
2017-03-04T03:29:32.260Z,74.92
2017-03-04T03:30:32.260Z,74.35
2017-03-04T03:31:32.237Z,74.26
2017-03-04T03:32:32.236Z,74.64
2017-03-04T03:33:32.227Z,74.64
2017-03-04T03:34:32.207Z,74.26
2017-03-04T03:35:32.192Z,74.92
2017-03-04T03:36:32.176Z,74.26
2017-03-04T03:37:32.166Z,73.97
2017-03-04T03:38:32.155Z,74.49
2017-03-04T03:39:31.756Z,74.2
2017-03-04T03:40:32.132Z,74.35
2017-03-04T03:41:32.128Z,74.16
2017-03-04T03:42:32.109Z,74.2
2017-03-04T03:43:32.098Z,74.16
2017-03-04T03:44:32.085Z,74.07
2017-03-04T03:45:32.078Z,74.26
2017-03-04T03:46:32.066Z,74.16
2017-03-04T03:47:32.049Z,74.26
2017-03-04T03:48:32.034Z,74.26
2017-03-04T03:49:32.024Z,74.39
2017-03-04T03:50:32.014Z,74.26
2017-03-04T03:51:32.002Z,74.16
2017-03-04T03:52:31.992Z,74.83
2017-03-04T03:53:31.991Z,74.54
2017-03-04T03:54:31.590Z,74.64
2017-03-04T03:55:31.967Z,74.64
2017-03-04T03:56:31.948Z,74.16
2017-03-04T03:57:31.548Z,74.92
2017-03-04T03:58:31.929Z,74.83
2017-03-04T03:59:31.915Z,74.26
2017-03-04T04:00:31.897Z,74.26
2017-03-04T04:01:31.888Z,74.26
2017-03-04T04:02:31.890Z,74.54
2017-03-04T04:03:31.861Z,74.73
2017-03-04T04:04:31.850Z,74.16
2017-03-04T04:05:31.840Z,74.07
2017-03-04T04:06:31.830Z,74.73
2017-03-04T04:07:31.815Z,74.92
2017-03-04T04:08:31.801Z,75.02
2017-03-04T04:09:31.790Z,75.59
2017-03-04T04:10:31.795Z,74.73
2017-03-04T04:11:31.767Z,74.83
2017-03-04T04:12:31.756Z,75.11
2017-03-04T04:13:31.744Z,74.83
2017-03-04T04:14:31.733Z,75.02
2017-03-04T04:15:31.727Z,74.45
2017-03-04T04:16:31.715Z,74.64
2017-03-04T04:17:31.697Z,74.64
2017-03-04T04:18:31.686Z,75.59
2017-03-04T04:19:31.708Z,74.64
2017-03-04T04:20:31.669Z,74.73
2017-03-04T04:21:31.650Z,74.83
2017-03-04T04:22:31.636Z,74.73
2017-03-04T04:23:31.623Z,74.83
2017-03-04T04:24:31.613Z,74.83
2017-03-04T04:25:31.600Z,74.73
2017-03-04T04:26:31.587Z,74.64
2017-03-04T04:27:31.589Z,75.31
2017-03-04T04:28:31.568Z,74.45
2017-03-04T04:29:31.551Z,74.45
2017-03-04T04:30:31.541Z,74.92
2017-03-04T04:31:31.570Z,74.83
2017-03-04T04:32:31.518Z,75.31
2017-03-04T04:33:31.516Z,75.02
2017-03-04T04:34:31.508Z,75.21
2017-03-04T04:35:31.485Z,74.64
2017-03-04T04:36:31.479Z,74.92
2017-03-04T04:37:31.458Z,75.11
2017-03-04T04:38:31.447Z,75.68
2017-03-04T04:39:31.447Z,75.87
2017-03-04T04:40:31.426Z,75.78
2017-03-04T04:41:31.430Z,75.68
2017-03-04T04:42:31.400Z,75.68
2017-03-04T04:43:31.386Z,75.49
2017-03-04T04:44:31.392Z,75.78
2017-03-04T04:45:31.361Z,76.15
2017-03-04T04:46:31.350Z,76.15
2017-03-04T04:47:31.343Z,76.06
2017-03-04T04:48:31.324Z,76.82
2017-03-04T04:49:31.313Z,76.15
2017-03-04T04:50:31.308Z,76.15
2017-03-04T04:51:31.294Z,76.34
2017-03-04T04:52:31.289Z,75.96
2017-03-04T04:53:31.268Z,76.44
2017-03-04T04:54:31.262Z,76.54
2017-03-04T04:55:31.241Z,76.54
2017-03-04T04:56:31.230Z,76.54
2017-03-04T04:57:31.219Z,76.63
2017-03-04T04:58:31.221Z,76.34
2017-03-04T04:59:31.193Z,76.63
2017-03-04T05:00:31.182Z,76.73
2017-03-04T05:01:31.183Z,76.34
2017-03-04T05:02:31.157Z,76.63
2017-03-04T05:03:31.145Z,76.44
2017-03-04T05:04:31.137Z,76.63
2017-03-04T05:05:31.125Z,76.44
2017-03-04T05:06:31.109Z,76.63
2017-03-04T05:07:31.097Z,76.54
2017-03-04T05:08:31.084Z,76.54
2017-03-04T05:09:31.081Z,76.54
2017-03-04T05:10:31.061Z,76.54
2017-03-04T05:11:31.050Z,76.44
2017-03-04T05:12:31.036Z,76.73
2017-03-04T05:13:31.033Z,76.34
2017-03-04T05:14:31.012Z,76.63
2017-03-04T05:15:31.001Z,76.54
2017-03-04T05:16:31.002Z,76.25
2017-03-04T05:17:30.975Z,76.92
2017-03-04T05:18:30.971Z,77.2
2017-03-04T05:19:30.953Z,76.73
2017-03-04T05:20:30.938Z,76.63
2017-03-04T05:21:30.928Z,77.11
2017-03-04T05:22:30.920Z,77.29
2017-03-04T05:23:30.904Z,77.29
2017-03-04T05:24:30.895Z,77.29
2017-03-04T05:25:30.881Z,77.2
2017-03-04T05:26:30.865Z,76.92
2017-03-04T05:27:30.854Z,77.11
2017-03-04T05:28:30.843Z,77.11
2017-03-04T05:29:30.831Z,76.82
2017-03-04T05:30:30.822Z,77.35
2017-03-04T05:31:30.805Z,77.92
2017-03-04T05:32:30.794Z,77.77
2017-03-04T05:33:30.781Z,77.54
2017-03-04T05:34:30.773Z,78.02
2017-03-04T05:35:30.757Z,77.96
2017-03-04T05:36:30.754Z,77.64
2017-03-04T05:37:30.734Z,77.77
2017-03-04T05:38:30.731Z,78.05
2017-03-04T05:39:30.720Z,77.92
2017-03-04T05:40:30.697Z,77.58
2017-03-04T05:41:30.686Z,78.62
2017-03-04T05:42:30.675Z,78.2
2017-03-04T05:43:30.672Z,78.11
2017-03-04T05:44:30.660Z,78.3
2017-03-04T05:45:30.652Z,78.11
2017-03-04T05:46:30.623Z,78.67
2017-03-04T05:47:30.611Z,78.39
2017-03-04T05:48:30.598Z,78.49
2017-03-04T05:49:30.588Z,78.77
2017-03-04T05:50:30.587Z,78.49
2017-03-04T05:51:30.565Z,78.77
2017-03-04T05:52:30.550Z,78.81
2017-03-04T05:53:30.538Z,78.67
2017-03-04T05:54:30.527Z,78.67
2017-03-04T05:55:30.515Z,78.77
2017-03-04T05:56:30.517Z,78.58
2017-03-04T05:57:30.490Z,78.91
2017-03-04T05:58:30.477Z,78.62
2017-03-04T05:59:30.476Z,78.62
2017-03-04T06:00:30.460Z,78.81
2017-03-04T06:01:30.444Z,78.24
2017-03-04T06:02:30.429Z,78.15
2017-03-04T06:03:30.421Z,78.62
2017-03-04T06:04:30.402Z,78.62
2017-03-04T06:05:30.394Z,78.34
2017-03-04T06:06:30.391Z,78.62
2017-03-04T06:07:30.366Z,78.34
2017-03-04T06:08:30.354Z,78.43
2017-03-04T06:09:30.342Z,77.96
2017-03-04T06:10:30.332Z,78.15
2017-03-04T06:11:30.327Z,78.34
2017-03-04T06:12:30.306Z,78.24
2017-03-04T06:13:30.304Z,78.43
2017-03-04T06:14:30.297Z,78.62
2017-03-04T06:15:30.269Z,78.05
2017-03-04T06:16:30.257Z,77.77
2017-03-04T06:17:30.246Z,77.77
2017-03-04T06:18:30.234Z,77.96
2017-03-04T06:19:30.221Z,77.86
2017-03-04T06:20:30.209Z,77.96
2017-03-04T06:21:30.197Z,77.58
2017-03-04T06:22:30.197Z,77.48
2017-03-04T06:23:30.187Z,77.58
2017-03-04T06:24:30.167Z,77.39
2017-03-04T06:25:30.157Z,77.39
2017-03-04T06:26:30.136Z,77.2
2017-03-04T06:27:30.126Z,77.29
2017-03-04T06:28:29.736Z,77.39
2017-03-04T06:29:29.718Z,76.92
2017-03-04T06:30:30.103Z,77.05
2017-03-04T06:31:30.078Z,76.92
2017-03-04T06:32:30.067Z,76.92
2017-03-04T06:33:30.053Z,77.39
2017-03-04T06:34:30.054Z,77.33
2017-03-04T06:35:30.034Z,76.95
2017-03-04T06:36:30.030Z,76.57
2017-03-04T06:37:30.007Z,76.57
2017-03-04T06:38:30.008Z,76.39
2017-03-04T06:39:29.987Z,76.2
2017-03-04T06:40:29.601Z,76.48
2017-03-04T06:41:29.962Z,76.39
2017-03-04T06:42:29.953Z,76.29
2017-03-04T06:43:29.939Z,76.39
2017-03-04T06:44:29.927Z,76.76
2017-03-04T06:45:29.927Z,76.48
2017-03-04T06:46:29.910Z,75.81
2017-03-04T06:47:29.507Z,75.81
2017-03-04T06:48:29.880Z,75.15
2017-03-04T06:49:29.874Z,75.24
2017-03-04T06:50:29.472Z,75.43
2017-03-04T06:51:29.847Z,75.43
2017-03-04T06:52:29.485Z,75.53
2017-03-04T06:53:29.827Z,75.15
2017-03-04T06:54:29.816Z,74.81
2017-03-04T06:55:29.811Z,74.11
2017-03-04T06:56:29.794Z,75
2017-03-04T06:57:29.786Z,74.9
2017-03-04T06:58:29.771Z,74.43
2017-03-04T06:59:29.389Z,74.15
2017-03-04T07:00:29.753Z,74.43
2017-03-04T07:01:29.738Z,73.96
2017-03-04T07:02:29.340Z,73.76
2017-03-04T07:03:29.717Z,74.24
2017-03-04T07:04:29.321Z,73.96
2017-03-04T07:05:29.313Z,73.86
2017-03-04T07:06:29.693Z,73.19
2017-03-04T07:07:29.675Z,73.76
2017-03-04T07:08:29.680Z,73.57
2017-03-04T07:09:29.269Z,73.42
2017-03-04T07:10:29.657Z,73.04
2017-03-04T07:11:29.254Z,73.04
2017-03-04T07:12:29.621Z,72.85
2017-03-04T07:13:29.629Z,72.85
2017-03-04T07:14:29.229Z,72.19
2017-03-04T07:15:29.592Z,72.38
2017-03-04T07:16:29.592Z,71.52
2017-03-04T07:17:29.574Z,72
2017-03-04T07:18:29.571Z,71.33
2017-03-04T07:19:29.551Z,71.23
2017-03-04T07:20:29.542Z,70.95
2017-03-04T07:21:29.530Z,70.86
2017-03-04T07:22:29.534Z,70.51
2017-03-04T07:23:29.514Z,70.42
2017-03-04T07:24:29.508Z,70.42
2017-03-04T07:25:29.501Z,70.13
2017-03-04T07:26:29.497Z,70.04
2017-03-04T07:27:29.474Z,69.94
2017-03-04T07:28:29.464Z,69.09
2017-03-04T07:29:29.468Z,69.27
2017-03-04T07:30:29.458Z,69.56
2017-03-04T07:31:29.450Z,68.55
2017-03-04T07:32:29.429Z,68.55
2017-03-04T07:33:29.415Z,68.36
2017-03-04T07:34:29.026Z,68.74
2017-03-04T07:35:29.410Z,68.46
2017-03-04T07:36:29.396Z,67.69
2017-03-04T07:37:29.380Z,67.41
2017-03-04T07:38:29.374Z,67.6
2017-03-04T07:39:29.364Z,67.32
2017-03-04T07:40:29.351Z,67.03
2017-03-04T07:41:29.345Z,67.03
2017-03-04T07:42:29.636Z,66.97
2017-03-04T07:43:29.331Z,66.59
2017-03-04T07:44:29.327Z,66.3
2017-03-04T07:45:28.937Z,66.39
2017-03-04T07:46:29.315Z,65.92
2017-03-04T07:47:29.291Z,65.35
2017-03-04T07:48:29.291Z,64.78
2017-03-04T07:49:29.276Z,64.53
2017-03-04T07:50:29.273Z,64.24
2017-03-04T07:51:29.270Z,64.05
2017-03-04T07:52:29.250Z,63.57
2017-03-04T07:53:29.242Z,63.39
2017-03-04T07:54:28.853Z,63.01
2017-03-04T07:55:29.226Z,62.62
2017-03-04T07:56:29.219Z,62.81
2017-03-04T07:57:29.468Z,62.15
2017-03-04T07:58:29.206Z,62.53
2017-03-04T07:59:29.210Z,62.46
2017-03-04T08:00:29.189Z,61.8
2017-03-04T08:01:29.180Z,61.8
2017-03-04T08:02:28.789Z,61.8
2017-03-04T08:03:29.176Z,61.32
2017-03-04T08:04:29.166Z,61.32
2017-03-04T08:05:29.150Z,61.42
2017-03-04T08:06:29.154Z,61.42
2017-03-04T08:07:29.153Z,61.22
2017-03-04T08:08:29.137Z,61.35
2017-03-04T08:09:28.739Z,60.88
2017-03-04T08:10:29.121Z,60.69
2017-03-04T08:11:29.113Z,60.4
2017-03-04T08:12:29.105Z,59.64
2017-03-04T08:13:29.106Z,59.64
2017-03-04T08:14:29.091Z,60.02
2017-03-04T08:15:29.089Z,59.64
2017-03-04T08:16:29.094Z,59.26
2017-03-04T08:17:29.071Z,59.54
2017-03-04T08:18:29.073Z,59.74
2017-03-04T08:19:29.068Z,59.86
2017-03-04T08:20:29.050Z,58.91
2017-03-04T08:21:28.663Z,58.91
2017-03-04T08:22:29.040Z,58.72
2017-03-04T08:23:29.030Z,58.81
2017-03-04T08:24:29.025Z,58.72
2017-03-04T08:25:29.020Z,58.14
2017-03-04T08:26:29.025Z,58.52
2017-03-04T08:27:29.007Z,57.67
2017-03-04T08:28:29.001Z,57.67
2017-03-04T08:29:29.004Z,57.19
2017-03-04T08:30:28.991Z,57.22
2017-03-04T08:31:28.988Z,57.19
2017-03-04T08:32:28.979Z,56.17
2017-03-04T08:33:28.982Z,56.55
2017-03-04T08:34:28.962Z,56.84
2017-03-04T08:35:28.956Z,56.65
2017-03-04T08:36:28.563Z,56.65
2017-03-04T08:37:28.953Z,56.36
2017-03-04T08:38:28.955Z,55.98
2017-03-04T08:39:28.948Z,56.55
2017-03-04T08:40:28.927Z,56.55
2017-03-04T08:41:28.925Z,56.55
2017-03-04T08:42:28.926Z,56.55
2017-03-04T08:43:28.909Z,56.65
2017-03-04T08:44:28.904Z,56.17
2017-03-04T08:45:28.896Z,56.26
2017-03-04T08:46:28.889Z,56.65
2017-03-04T08:47:28.898Z,55.69
2017-03-04T08:48:28.883Z,55.31
2017-03-04T08:49:29.149Z,55.21
2017-03-04T08:50:28.883Z,55.41
2017-03-04T08:51:28.867Z,55.5
2017-03-04T08:52:28.855Z,55.5
2017-03-04T08:53:28.868Z,55.79
2017-03-04T08:54:28.844Z,55.82
2017-03-04T08:55:28.841Z,54.96
2017-03-04T08:56:28.845Z,55.05
2017-03-04T08:57:28.841Z,54.77
2017-03-04T08:58:28.822Z,54.67
2017-03-04T08:59:28.819Z,54.48
2017-03-04T09:00:28.811Z,54.57
2017-03-04T09:01:28.828Z,54.38
2017-03-04T09:02:28.413Z,54.19
2017-03-04T09:03:28.801Z,54
2017-03-04T09:04:28.803Z,53.81
2017-03-04T09:05:28.785Z,53.33
2017-03-04T09:06:28.778Z,53.81
2017-03-04T09:07:28.783Z,53.91
2017-03-04T09:08:28.768Z,54.29
2017-03-04T09:09:28.761Z,54.57
2017-03-04T09:10:28.757Z,54.29
2017-03-04T09:11:28.750Z,54.48
2017-03-04T09:12:28.761Z,55.15
2017-03-04T09:13:28.752Z,54.96
2017-03-04T09:14:28.734Z,55.05
2017-03-04T09:15:28.728Z,54.96
2017-03-04T09:16:28.734Z,54.86
2017-03-04T09:17:28.716Z,55.05
2017-03-04T09:18:28.714Z,54.86
2017-03-04T09:19:28.708Z,54.96
2017-03-04T09:20:28.700Z,54.96
2017-03-04T09:21:28.708Z,55.24
2017-03-04T09:22:28.690Z,55.18
2017-03-04T09:23:28.685Z,53.93
2017-03-04T09:24:28.680Z,53.93
2017-03-04T09:25:28.678Z,54.13
2017-03-04T09:26:28.671Z,53.45
2017-03-04T09:27:28.291Z,54.03
2017-03-04T09:28:28.659Z,53.84
2017-03-04T09:29:28.653Z,53.84
2017-03-04T09:30:28.657Z,53.36
2017-03-04T09:31:28.643Z,52.98
2017-03-04T09:32:28.647Z,53.17
2017-03-04T09:33:28.632Z,52.72
2017-03-04T09:34:28.627Z,52.59
2017-03-04T09:35:28.621Z,53.2
2017-03-04T09:36:28.615Z,53
2017-03-04T09:37:28.612Z,53.1
2017-03-04T09:38:28.605Z,53
2017-03-04T09:39:28.602Z,53.29
2017-03-04T09:40:28.603Z,52.91
2017-03-04T09:41:28.592Z,52.17
2017-03-04T09:42:28.584Z,51.6
2017-03-04T09:43:28.196Z,51.12
2017-03-04T09:44:28.576Z,51.12
2017-03-04T09:45:28.580Z,50.55
2017-03-04T09:46:28.565Z,50.38
2017-03-04T09:47:28.561Z,50.19
2017-03-04T09:48:28.556Z,49.71
2017-03-04T09:49:28.554Z,49.33
2017-03-04T09:50:28.547Z,49.43
2017-03-04T09:51:28.542Z,48.95
2017-03-04T09:52:28.537Z,48.28
2017-03-04T09:53:28.532Z,48.47
2017-03-04T09:54:28.528Z,48.28
2017-03-04T09:55:28.522Z,49.04
2017-03-04T09:56:28.526Z,48.66
2017-03-04T09:57:28.514Z,49.04
2017-03-04T09:58:28.509Z,48.85
2017-03-04T09:59:28.504Z,49.04
2017-03-04T10:00:28.505Z,49.43
2017-03-04T10:01:28.505Z,49.33
2017-03-04T10:02:28.498Z,49.71
2017-03-04T10:03:28.490Z,49.71
2017-03-04T10:04:28.498Z,49.33
2017-03-04T10:05:28.492Z,48.85
2017-03-04T10:06:28.471Z,49.14
2017-03-04T10:07:28.471Z,48.85
2017-03-04T10:08:28.462Z,48.85
2017-03-04T10:09:28.458Z,48.66
2017-03-04T10:10:28.455Z,49.04
2017-03-04T10:11:28.449Z,48.38
2017-03-04T10:12:28.449Z,48.11
2017-03-04T10:13:28.451Z,47.73
2017-03-04T10:14:28.438Z,47.53
2017-03-04T10:15:28.431Z,47.82
2017-03-04T10:16:28.428Z,48.11
2017-03-04T10:17:28.422Z,48.21
2017-03-04T10:18:28.032Z,48.02
2017-03-04T10:19:28.415Z,48.88
2017-03-04T10:20:28.412Z,48.88
2017-03-04T10:21:28.419Z,48.88
2017-03-04T10:22:28.415Z,48.88
2017-03-04T10:23:28.394Z,48.11
2017-03-04T10:24:28.393Z,47.82
2017-03-04T10:25:28.386Z,47.82
2017-03-04T10:26:28.383Z,48.02
2017-03-04T10:27:28.385Z,48.02
2017-03-04T10:28:28.385Z,48.21
2017-03-04T10:29:28.370Z,48.59
2017-03-04T10:30:28.371Z,48.88
2017-03-04T10:31:28.361Z,48.68
2017-03-04T10:32:28.357Z,48.59
2017-03-04T10:33:28.364Z,48.88
2017-03-04T10:34:28.360Z,49.09
2017-03-04T10:35:28.345Z,49
2017-03-04T10:36:28.344Z,48.9
2017-03-04T10:37:28.338Z,48.23
2017-03-04T10:38:28.333Z,48.33
2017-03-04T10:39:28.342Z,47.66
2017-03-04T10:40:28.343Z,47.56
2017-03-04T10:41:28.323Z,47.75
2017-03-04T10:42:28.316Z,47.47
2017-03-04T10:43:28.313Z,47.47
2017-03-04T10:44:28.309Z,47.18
2017-03-04T10:45:28.304Z,47.08
2017-03-04T10:46:28.303Z,47.2
2017-03-04T10:47:28.302Z,47.01
2017-03-04T10:48:28.297Z,47.3
2017-03-04T10:49:28.290Z,47.11
2017-03-04T10:50:28.286Z,47.49
2017-03-04T10:51:28.297Z,47.11
2017-03-04T10:52:28.281Z,47.49
2017-03-04T10:53:28.274Z,46.15
2017-03-04T10:54:28.272Z,46.05
2017-03-04T10:55:28.282Z,46.15
2017-03-04T10:56:28.262Z,46.34
2017-03-04T10:57:28.262Z,46.15
2017-03-04T10:58:28.256Z,46.53
2017-03-04T10:59:28.253Z,46.44
2017-03-04T11:00:27.862Z,46.34
2017-03-04T11:01:28.245Z,46.25
2017-03-04T11:02:28.242Z,46.62
2017-03-04T11:03:28.244Z,46.53
2017-03-04T11:04:28.235Z,46.05
2017-03-04T11:05:28.232Z,45.57
2017-03-04T11:06:28.235Z,45.96
2017-03-04T11:07:28.235Z,45.76
2017-03-04T11:08:28.224Z,45.98
2017-03-04T11:09:28.220Z,45.79
2017-03-04T11:10:28.217Z,45.59
2017-03-04T11:11:28.211Z,45.12
2017-03-04T11:12:28.212Z,45.02
2017-03-04T11:13:28.204Z,44.54
2017-03-04T11:14:28.198Z,44.16
2017-03-04T11:15:28.200Z,44.54
2017-03-04T11:16:28.192Z,44.26
2017-03-04T11:17:28.189Z,44.64
2017-03-04T11:18:28.198Z,44.83
2017-03-04T11:19:28.181Z,44.93
2017-03-04T11:20:28.178Z,44.64
2017-03-04T11:21:28.195Z,44.54
2017-03-04T11:22:28.170Z,44.35
2017-03-04T11:23:28.165Z,44.35
2017-03-04T11:24:28.164Z,43.68
2017-03-04T11:25:28.167Z,43.68
2017-03-04T11:26:28.159Z,43.59
2017-03-04T11:27:28.154Z,43.77
2017-03-04T11:28:28.149Z,43.97
2017-03-04T11:29:28.145Z,43.77
2017-03-04T11:30:28.142Z,43.7
2017-03-04T11:31:28.139Z,43.51
2017-03-04T11:32:28.135Z,43.2
2017-03-04T11:33:28.142Z,42.84
2017-03-04T11:34:28.151Z,43.03
2017-03-04T11:35:28.128Z,43.13
2017-03-04T11:36:28.121Z,43.23
2017-03-04T11:37:28.119Z,43.32
2017-03-04T11:38:28.114Z,43.03
2017-03-04T11:39:28.112Z,42.65
2017-03-04T11:40:28.124Z,42.94
2017-03-04T11:41:28.104Z,43.23
2017-03-04T11:42:28.121Z,43.51
2017-03-04T11:43:28.098Z,43.03
2017-03-04T11:44:28.094Z,43.23
2017-03-04T11:45:28.089Z,43.41
2017-03-04T11:46:28.096Z,42.84
2017-03-04T11:47:28.084Z,42.55
2017-03-04T11:48:28.093Z,42.55
2017-03-04T11:49:28.108Z,42
2017-03-04T11:50:28.075Z,42.1
2017-03-04T11:51:28.072Z,41.8
2017-03-04T11:52:28.082Z,41.8
2017-03-04T11:53:28.080Z,42
2017-03-04T11:54:28.064Z,41.52
2017-03-04T11:55:28.060Z,41.33
2017-03-04T11:56:27.676Z,41.52
2017-03-04T11:57:28.057Z,41.23
2017-03-04T11:58:28.051Z,40.84
2017-03-04T11:59:28.051Z,40.84
2017-03-04T12:00:28.045Z,40.94
2017-03-04T12:01:28.040Z,41.23
2017-03-04T12:02:28.041Z,41.9
2017-03-04T12:03:28.034Z,42
2017-03-04T12:04:28.040Z,41.8
2017-03-04T12:05:28.029Z,41.61
2017-03-04T12:06:28.027Z,41.71
2017-03-04T12:07:28.023Z,41.52
2017-03-04T12:08:28.018Z,40.94
2017-03-04T12:09:28.017Z,40.84
2017-03-04T12:10:28.023Z,40.94
2017-03-04T12:11:28.009Z,41.13
2017-03-04T12:12:28.023Z,41.23
2017-03-04T12:13:28.008Z,41.23
2017-03-04T12:14:28.001Z,40.75
2017-03-04T12:15:27.995Z,40.94
2017-03-04T12:16:27.993Z,40.94
2017-03-04T12:17:27.994Z,40.94
2017-03-04T12:18:27.984Z,41.04
2017-03-04T12:19:27.990Z,41.23
2017-03-04T12:20:27.978Z,41.13
2017-03-04T12:21:27.983Z,41.33
2017-03-04T12:22:27.981Z,41.52
2017-03-04T12:23:27.975Z,41.52
2017-03-04T12:24:27.969Z,41.23
2017-03-04T12:25:27.592Z,41.23
2017-03-04T12:26:27.966Z,41.04
2017-03-04T12:27:27.958Z,41.04
2017-03-04T12:28:27.954Z,40.94
2017-03-04T12:29:27.952Z,40.47
2017-03-04T12:30:27.964Z,40.47
2017-03-04T12:31:27.949Z,39.98
2017-03-04T12:32:27.950Z,40.17
2017-03-04T12:33:27.939Z,40.47
2017-03-04T12:34:27.935Z,40.94
2017-03-04T12:35:27.930Z,41.23
2017-03-04T12:36:27.929Z,41.61
2017-03-04T12:37:27.927Z,42.19
2017-03-04T12:38:27.923Z,42.19
2017-03-04T12:39:27.921Z,42.38
2017-03-04T12:40:27.916Z,42.77
2017-03-04T12:41:27.916Z,42.86
2017-03-04T12:42:27.915Z,42.77
2017-03-04T12:43:27.909Z,42.67
2017-03-04T12:44:27.906Z,42.47
2017-03-04T12:45:27.900Z,42.86
2017-03-04T12:46:27.899Z,42.29
2017-03-04T12:47:27.904Z,42.96
2017-03-04T12:48:27.894Z,42.96
2017-03-04T12:49:27.892Z,43.24
2017-03-04T12:50:27.883Z,42.86
2017-03-04T12:51:27.882Z,42.96
2017-03-04T12:52:27.880Z,42.47
2017-03-04T12:53:27.875Z,42.47
2017-03-04T12:54:27.880Z,42.77
2017-03-04T12:55:27.876Z,42.67